Time;durP1;ratioP1;P1;durP2;ratioP2;P2;SDS_P1;SDS_P2;PMS_P1;PMS_P2;Temp;Humidity;BMP_temperature;BMP_pressure;BME280_temperature;BME280_humidity;BME280_pressure;Samples;Min_cycle;Max_cycle;Signal;HPM_P1;HPM_P2
2024/02/03 00:02:19;;;;;;;20.65;7.43;;;9.30;99.90;;;;;;6143750;23;20073;-89
2024/02/03 00:04:46;;;;;;;22.42;8.20;;;9.30;99.90;;;;;;6143371;23;20060;-89
2024/02/03 00:07:12;;;;;;;22.80;8.35;;;9.30;99.90;;;;;;6143745;23;20022;-89
2024/02/03 00:09:39;;;;;;;16.92;7.70;;;9.30;99.90;;;;;;6143567;23;20068;-88
2024/02/03 00:12:07;;;;;;;26.88;8.93;;;9.30;99.90;;;;;;6168521;23;20041;-89
2024/02/03 00:14:35;;;;;;;18.70;7.55;;;9.30;99.90;;;;;;6143776;23;20033;-89
2024/02/03 00:17:02;;;;;;;21.08;7.38;;;9.30;99.90;;;;;;6143623;23;20045;-90
2024/02/03 00:19:29;;;;;;;20.15;7.53;;;9.30;99.90;;;;;;6143687;23;20021;-90
2024/02/03 00:21:57;;;;;;;18.02;7.43;;;9.30;99.90;;;;;;6143779;23;20073;-89
2024/02/03 00:24:24;;;;;;;18.67;7.88;;;9.30;99.90;;;;;;6143802;23;20018;-89
2024/02/03 00:26:52;;;;;;;16.50;6.95;;;9.30;99.90;;;;;;6143543;23;20024;-89
2024/02/03 00:29:18;;;;;;;16.48;6.40;;;9.30;99.90;;;;;;6143432;23;20462;-89
2024/02/03 00:31:45;;;;;;;16.85;6.90;;;9.30;99.90;;;;;;6167962;23;20014;-89
2024/02/03 00:34:12;;;;;;;16.08;6.50;;;9.30;99.90;;;;;;6143670;23;20680;-89
2024/02/03 00:36:38;;;;;;;16.15;6.72;;;9.30;99.90;;;;;;6168349;23;20033;-89
2024/02/03 00:39:06;;;;;;;15.50;6.00;;;9.40;99.90;;;;;;6143298;23;20036;-89
2024/02/03 00:41:33;;;;;;;15.52;6.90;;;9.40;99.90;;;;;;6143664;23;20018;-89
2024/02/03 00:43:59;;;;;;;20.77;6.90;;;9.40;99.90;;;;;;6143514;23;20010;-89
2024/02/03 00:46:26;;;;;;;19.83;6.63;;;9.40;99.90;;;;;;6143354;23;20022;-90
2024/02/03 00:48:53;;;;;;;12.70;5.80;;;9.40;99.90;;;;;;6143506;23;20010;-90
2024/02/03 00:51:19;;;;;;;18.08;5.65;;;9.40;99.90;;;;;;6143567;23;20021;-90
2024/02/03 00:53:46;;;;;;;15.27;5.80;;;9.40;99.90;;;;;;6143620;23;20013;-90
2024/02/03 00:56:13;;;;;;;14.60;6.35;;;9.40;99.90;;;;;;6143349;23;20013;-89
2024/02/03 00:58:39;;;;;;;19.38;5.85;;;9.40;99.90;;;;;;6143351;23;20385;-89
2024/02/03 01:01:06;;;;;;;17.10;7.00;;;9.40;99.90;;;;;;6143641;23;20016;-88
2024/02/03 01:03:33;;;;;;;15.45;6.45;;;9.40;99.90;;;;;;6143109;23;20010;-89
2024/02/03 01:06:00;;;;;;;14.05;6.18;;;9.40;99.90;;;;;;6143168;23;20060;-89
2024/02/03 01:08:26;;;;;;;15.80;5.53;;;9.40;99.90;;;;;;6143438;23;20053;-89
2024/02/03 01:10:53;;;;;;;11.65;5.13;;;9.40;99.90;;;;;;6143416;23;20056;-89
2024/02/03 01:13:20;;;;;;;16.85;5.93;;;9.40;99.90;;;;;;6143089;23;20072;-89
2024/02/03 01:15:46;;;;;;;12.55;5.88;;;9.40;99.90;;;;;;6143263;23;20014;-89
2024/02/03 01:18:13;;;;;;;13.63;5.85;;;9.50;99.90;;;;;;6143330;23;20061;-89
2024/02/03 01:20:40;;;;;;;17.90;5.97;;;9.50;99.90;;;;;;6143375;23;20049;-89
2024/02/03 01:23:06;;;;;;;15.70;5.32;;;9.50;99.90;;;;;;6142925;23;20017;-89
2024/02/03 01:25:33;;;;;;;15.27;5.63;;;9.50;99.90;;;;;;6167546;23;20515;-89
2024/02/03 01:28:00;;;;;;;12.57;5.22;;;9.50;99.90;;;;;;6143220;23;20334;-89
2024/02/03 01:30:26;;;;;;;14.23;5.90;;;9.50;99.90;;;;;;6143219;23;20513;-89
2024/02/03 01:32:53;;;;;;;13.85;5.18;;;9.50;99.90;;;;;;6143111;23;20096;-89
2024/02/03 01:35:20;;;;;;;16.35;4.97;;;9.50;99.90;;;;;;6143254;23;20010;-89
2024/02/03 01:37:47;;;;;;;14.07;5.18;;;9.50;99.90;;;;;;6143299;23;20018;-89
2024/02/03 01:40:14;;;;;;;12.65;5.18;;;9.50;99.90;;;;;;6142714;23;20014;-89
2024/02/03 01:42:41;;;;;;;9.85;4.57;;;9.50;99.90;;;;;;6143024;23;20092;-89
2024/02/03 01:45:08;;;;;;;11.57;5.07;;;9.50;99.90;;;;;;6143216;23;20096;-90
2024/02/03 01:47:35;;;;;;;11.05;4.25;;;9.50;99.90;;;;;;6142717;23;20017;-89
2024/02/03 01:50:04;;;;;;;11.57;4.70;;;9.50;99.90;;;;;;6142986;23;20021;-89
2024/02/03 01:52:32;;;;;;;10.00;4.60;;;9.50;99.90;;;;;;6142948;23;20471;-89
2024/02/03 01:54:59;;;;;;;10.10;4.03;;;9.50;99.90;;;;;;6143033;23;20013;-89
2024/02/03 01:57:27;;;;;;;10.15;4.20;;;9.60;99.90;;;;;;6142886;23;20040;-89
2024/02/03 01:59:54;;;;;;;10.13;4.18;;;9.60;99.90;;;;;;6143061;23;20065;-89
2024/02/03 02:02:21;;;;;;;10.57;4.20;;;9.60;99.90;;;;;;6143205;23;20014;-88
2024/02/03 02:04:48;;;;;;;10.98;3.88;;;9.60;99.90;;;;;;6142369;23;20397;-89
2024/02/03 02:07:15;;;;;;;8.68;4.05;;;9.60;99.90;;;;;;6142855;23;20014;-89
2024/02/03 02:09:42;;;;;;;12.02;3.90;;;9.60;99.90;;;;;;6142830;23;20025;-89
2024/02/03 02:12:08;;;;;;;10.73;4.03;;;9.60;99.90;;;;;;6142911;23;20198;-89
2024/02/03 02:14:35;;;;;;;16.88;4.45;;;9.60;99.90;;;;;;6142454;23;20418;-89
2024/02/03 02:17:02;;;;;;;8.90;4.25;;;9.60;99.90;;;;;;6142798;23;20010;-89
2024/02/03 02:19:28;;;;;;;14.20;4.72;;;9.60;99.90;;;;;;6142767;23;20061;-89
2024/02/03 02:21:55;;;;;;;11.05;4.30;;;9.60;99.90;;;;;;6142686;23;20018;-89
2024/02/03 02:24:22;;;;;;;12.45;4.07;;;9.60;99.90;;;;;;6142811;23;20041;-90
2024/02/03 02:26:49;;;;;;;9.70;3.50;;;9.60;99.90;;;;;;6142741;23;20014;-89
2024/02/03 02:29:16;;;;;;;12.57;3.67;;;9.60;99.90;;;;;;6142864;23;20357;-89
2024/02/03 02:31:43;;;;;;;8.80;3.65;;;9.60;99.90;;;;;;6142830;23;20018;-89
2024/02/03 02:34:09;;;;;;;9.75;3.78;;;9.50;99.90;;;;;;6144376;23;20024;-89
2024/02/03 02:36:36;;;;;;;13.40;3.88;;;9.60;99.90;;;;;;6144971;23;20018;-89
2024/02/03 02:39:05;;;;;;;8.13;3.75;;;9.60;99.90;;;;;;6144310;23;20020;-89
2024/02/03 02:41:32;;;;;;;9.00;3.90;;;9.60;99.90;;;;;;6144880;23;20068;-89
2024/02/03 02:43:59;;;;;;;13.93;4.05;;;9.60;99.90;;;;;;6144789;23;20041;-90
2024/02/03 02:46:27;;;;;;;10.82;3.47;;;9.50;99.90;;;;;;6144338;23;20021;-89
2024/02/03 02:48:53;;;;;;;10.77;3.40;;;9.50;99.90;;;;;;6144760;23;20014;-89
2024/02/03 02:51:20;;;;;;;9.50;3.42;;;9.60;99.90;;;;;;6144502;23;20484;-89
2024/02/03 02:53:47;;;;;;;16.17;3.47;;;9.50;99.90;;;;;;6144373;23;20378;-89
2024/02/03 02:56:14;;;;;;;8.93;3.28;;;9.50;99.90;;;;;;6144580;23;20021;-89
2024/02/03 02:58:40;;;;;;;7.85;3.35;;;9.60;99.90;;;;;;6144467;23;20013;-89
2024/02/03 03:01:07;;;;;;;12.88;3.47;;;9.60;99.90;;;;;;6144799;23;20010;-89
2024/02/03 03:03:34;;;;;;;9.10;3.28;;;9.60;99.90;;;;;;6144796;23;20520;-89
2024/02/03 03:06:00;;;;;;;9.70;3.42;;;9.60;99.90;;;;;;6144649;23;20014;-89
2024/02/03 03:08:27;;;;;;;7.88;3.38;;;9.60;99.90;;;;;;6144634;23;20021;-89
2024/02/03 03:10:54;;;;;;;11.27;3.25;;;9.60;99.90;;;;;;6144580;23;20022;-89
2024/02/03 03:13:20;;;;;;;9.15;3.17;;;9.60;99.90;;;;;;6144392;23;20021;-89
2024/02/03 03:15:47;;;;;;;10.18;3.17;;;9.60;99.90;;;;;;6144575;23;20476;-89
2024/02/03 03:18:14;;;;;;;8.65;2.95;;;9.60;99.90;;;;;;6144594;23;20014;-89
2024/02/03 03:20:41;;;;;;;8.98;3.08;;;9.70;99.90;;;;;;6144451;23;20006;-89
2024/02/03 03:23:07;;;;;;;12.15;3.20;;;9.70;99.90;;;;;;6144192;23;20006;-89
2024/02/03 03:25:37;;;;;;;10.05;3.25;;;10.00;99.90;;;;;;6144832;23;20026;-89
2024/02/03 03:28:04;;;;;;;8.63;3.25;;;9.70;99.90;;;;;;6144573;23;20049;-89
2024/02/03 03:30:31;;;;;;;7.63;2.90;;;9.70;99.90;;;;;;6144239;23;20013;-89
2024/02/03 03:32:58;;;;;;;13.38;4.05;;;9.70;99.90;;;;;;6144385;23;20069;-90
2024/02/03 03:35:25;;;;;;;8.48;2.83;;;9.80;99.90;;;;;;6144067;23;20018;-90
2024/02/03 03:37:52;;;;;;;13.43;3.13;;;9.70;99.90;;;;;;6143995;23;20053;-89
2024/02/03 03:40:19;;;;;;;10.65;3.30;;;9.70;99.90;;;;;;6143998;23;20025;-89
2024/02/03 03:42:47;;;;;;;10.25;3.35;;;9.80;99.90;;;;;;6144336;23;20010;-89
2024/02/03 03:45:14;;;;;;;9.52;3.28;;;9.80;99.90;;;;;;6144191;23;20014;-89
2024/02/03 03:47:41;;;;;;;10.82;3.45;;;9.80;99.90;;;;;;6144128;23;20025;-89
2024/02/03 03:50:08;;;;;;;10.13;3.00;;;9.80;99.90;;;;;;6144146;23;20022;-89
2024/02/03 03:52:34;;;;;;;13.68;3.63;;;9.80;99.90;;;;;;6144158;23;20018;-90
2024/02/03 03:55:01;;;;;;;9.05;3.70;;;10.10;99.90;;;;;;6144324;23;20014;-89
2024/02/03 03:57:28;;;;;;;10.43;3.65;;;10.10;99.90;;;;;;6144085;23;20010;-89
2024/02/03 03:59:54;;;;;;;7.25;2.90;;;10.00;99.90;;;;;;6143662;23;20013;-89
2024/02/03 04:02:21;;;;;;;13.35;3.40;;;9.90;99.90;;;;;;6143564;23;20029;-89
2024/02/03 04:04:47;;;;;;;15.18;3.20;;;10.00;99.90;;;;;;6143980;23;20026;-89
2024/02/03 04:07:14;;;;;;;8.82;3.13;;;9.90;99.90;;;;;;6143849;23;20013;-89
2024/02/03 04:09:47;;;;;;;15.85;3.65;;;10.00;99.90;;;;;;6143786;23;20014;-89
2024/02/03 04:12:15;;;;;;;7.97;3.05;;;9.90;99.90;;;;;;6144676;23;20352;-89
2024/02/03 04:14:42;;;;;;;10.27;2.90;;;9.90;99.90;;;;;;6143759;23;20644;-89
2024/02/03 04:17:09;;;;;;;8.20;3.13;;;10.00;99.90;;;;;;6143840;23;20018;-89
2024/02/03 04:19:36;;;;;;;7.20;3.13;;;9.90;99.90;;;;;;6144037;23;20089;-89
2024/02/03 04:22:03;;;;;;;10.43;3.28;;;9.90;99.90;;;;;;6144004;23;20037;-89
2024/02/03 04:24:29;;;;;;;11.57;2.92;;;9.90;99.90;;;;;;6143521;23;20336;-89
2024/02/03 04:26:57;;;;;;;7.88;3.05;;;9.90;99.90;;;;;;6143810;23;20014;-89
2024/02/03 04:29:23;;;;;;;7.88;3.47;;;10.20;99.90;;;;;;6143540;23;20017;-89
2024/02/03 04:31:50;;;;;;;11.35;3.40;;;9.90;99.90;;;;;;6143711;23;20488;-89
2024/02/03 04:34:18;;;;;;;7.78;3.33;;;9.90;99.90;;;;;;6143554;23;20433;-89
2024/02/03 04:36:46;;;;;;;10.38;3.20;;;9.90;99.90;;;;;;6143729;23;20060;-89
2024/02/03 04:39:13;;;;;;;8.50;2.75;;;9.90;99.90;;;;;;6167743;23;20018;-90
2024/02/03 04:41:40;;;;;;;11.82;3.13;;;10.10;99.90;;;;;;6168336;23;20472;-89
2024/02/03 04:44:06;;;;;;;8.07;2.72;;;9.90;99.90;;;;;;6143245;23;20644;-90
2024/02/03 04:46:33;;;;;;;9.82;3.28;;;9.90;99.90;;;;;;6143819;23;20356;-89
2024/02/03 04:49:00;;;;;;;7.63;2.45;;;10.30;99.90;;;;;;6143532;23;20345;-89
2024/02/03 04:51:29;;;;;;;6.18;2.55;;;9.90;99.90;;;;;;6143706;23;20018;-89
2024/02/03 04:53:55;;;;;;;10.85;3.25;;;9.90;99.90;;;;;;6143456;23;20552;-89
2024/02/03 04:56:22;;;;;;;9.38;2.70;;;9.80;99.90;;;;;;6167287;23;20061;-89
2024/02/03 04:58:48;;;;;;;8.38;2.70;;;9.90;99.90;;;;;;6143241;23;20013;-89
2024/02/03 05:01:15;;;;;;;10.20;3.10;;;9.90;99.90;;;;;;6143282;23;20018;-89
2024/02/03 05:03:42;;;;;;;7.05;2.80;;;10.30;99.90;;;;;;6143469;23;20382;-89
2024/02/03 05:06:08;;;;;;;11.45;3.13;;;9.80;99.90;;;;;;6143419;23;20025;-89
2024/02/03 05:08:35;;;;;;;9.27;3.00;;;9.90;99.90;;;;;;6143319;23;20021;-89
2024/02/03 05:11:02;;;;;;;10.00;2.80;;;9.80;99.90;;;;;;6142712;23;20025;-89
2024/02/03 05:13:28;;;;;;;13.65;3.25;;;9.90;99.90;;;;;;6143090;23;20018;-89
2024/02/03 05:15:55;;;;;;;7.57;3.25;;;10.40;99.90;;;;;;6167624;23;20035;-89
2024/02/03 05:18:22;;;;;;;13.98;3.20;;;9.90;99.90;;;;;;6143351;23;20018;-89
2024/02/03 05:20:49;;;;;;;10.52;3.00;;;9.90;99.90;;;;;;6143112;23;20014;-89
2024/02/03 05:23:16;;;;;;;9.45;2.95;;;9.90;99.90;;;;;;6143352;23;20014;-90
2024/02/03 05:25:43;;;;;;;7.53;2.72;;;9.90;99.90;;;;;;6143408;23;20461;-89
2024/02/03 05:28:10;;;;;;;12.98;3.75;;;9.90;99.90;;;;;;6143172;23;20014;-89
2024/02/03 05:30:37;;;;;;;7.90;2.60;;;10.40;99.90;;;;;;6143416;23;20033;-89
2024/02/03 05:33:04;;;;;;;9.15;2.75;;;10.00;99.90;;;;;;6143212;23;20010;-89
2024/02/03 05:35:31;;;;;;;10.43;3.20;;;9.80;99.90;;;;;;6143238;23;20445;-89
2024/02/03 05:37:57;;;;;;;10.98;3.10;;;10.00;99.90;;;;;;6143078;23;20069;-89
2024/02/03 05:40:24;;;;;;;8.23;2.72;;;9.80;99.90;;;;;;6097577;23;20505;-89
2024/02/03 05:42:51;;;;;;;13.05;3.30;;;10.70;99.90;;;;;;6090271;23;20018;-89
2024/02/03 05:45:19;;;;;;;18.80;3.20;;;9.80;99.90;;;;;;6090340;23;20441;-89
2024/02/03 05:47:46;;;;;;;10.68;3.10;;;9.90;99.90;;;;;;6090135;23;20085;-89
2024/02/03 05:50:13;;;;;;;8.15;2.83;;;9.80;99.90;;;;;;6113955;23;20466;-89
2024/02/03 05:52:39;;;;;;;8.90;2.65;;;9.80;99.90;;;;;;6090411;23;20046;-89
2024/02/03 05:55:07;;;;;;;9.35;3.05;;;10.00;99.90;;;;;;6089949;23;20508;-89
2024/02/03 05:57:33;;;;;;;6.35;2.90;;;9.80;99.90;;;;;;6090219;23;20070;-89
2024/02/03 06:00:00;;;;;;;8.43;3.10;;;9.80;99.90;;;;;;6090127;23;20011;-89
2024/02/03 06:02:30;;;;;;;7.35;3.13;;;9.90;99.90;;;;;;6090359;23;20018;-89
2024/02/03 06:04:56;;;;;;;14.30;3.13;;;10.80;99.90;;;;;;6090023;23;20010;-89
2024/02/03 06:07:23;;;;;;;12.07;3.35;;;9.90;99.90;;;;;;6090150;23;20490;-89
2024/02/03 06:09:50;;;;;;;12.48;3.53;;;10.20;99.90;;;;;;6089910;23;20014;-89
2024/02/03 06:12:16;;;;;;;11.30;3.58;;;9.90;99.90;;;;;;6114020;23;20520;-89
2024/02/03 06:14:44;;;;;;;11.45;3.53;;;10.10;99.90;;;;;;6090018;23;20108;-89
2024/02/03 06:17:10;;;;;;;8.15;3.25;;;9.90;99.90;;;;;;6089696;23;20018;-90
2024/02/03 06:19:37;;;;;;;9.73;3.85;;;9.90;99.90;;;;;;6090009;23;20025;-89
2024/02/03 06:22:04;;;;;;;11.38;3.88;;;9.90;99.90;;;;;;6090001;23;20093;-89
2024/02/03 06:24:31;;;;;;;10.48;3.63;;;9.90;99.90;;;;;;6090116;23;20066;-89
2024/02/03 06:26:58;;;;;;;10.57;3.90;;;10.20;99.90;;;;;;6113686;23;20017;-89
2024/02/03 06:29:24;;;;;;;12.18;3.45;;;9.90;99.90;;;;;;6089746;23;20022;-89
2024/02/03 06:31:51;;;;;;;11.68;3.40;;;10.00;99.90;;;;;;6089973;23;20014;-89
2024/02/03 06:34:18;;;;;;;10.48;3.25;;;9.90;99.90;;;;;;6090028;23;20018;-89
2024/02/03 06:36:45;;;;;;;11.43;3.60;;;9.80;99.90;;;;;;6113916;23;20025;-89
2024/02/03 06:39:11;;;;;;;9.27;3.22;;;9.90;99.90;;;;;;6089775;23;20018;-89
2024/02/03 06:41:39;;;;;;;10.48;3.42;;;9.80;99.90;;;;;;6114084;23;20390;-89
2024/02/03 06:44:09;;;;;;;15.45;4.53;;;10.00;99.90;;;;;;6089746;23;20018;-89
2024/02/03 06:46:35;;;;;;;11.32;3.53;;;9.70;99.90;;;;;;6089993;23;20116;-89
2024/02/03 06:49:02;;;;;;;11.05;3.47;;;9.70;99.90;;;;;;6090084;23;20019;-90
2024/02/03 06:51:29;;;;;;;10.30;3.08;;;10.40;99.90;;;;;;6113534;23;20102;-89
2024/02/03 06:53:55;;;;;;;8.52;3.05;;;9.70;99.90;;;;;;6089848;23;20026;-89
2024/02/03 06:56:22;;;;;;;12.05;3.42;;;9.80;99.90;;;;;;6089873;23;20015;-90
2024/02/03 06:58:49;;;;;;;13.60;3.50;;;9.60;99.90;;;;;;6089460;23;20015;-89
2024/02/03 07:01:16;;;;;;;11.32;3.63;;;9.60;99.90;;;;;;6089835;23;20014;-89
2024/02/03 07:03:42;;;;;;;8.70;3.50;;;10.20;99.90;;;;;;6089893;23;20010;-89
2024/02/03 07:06:09;;;;;;;14.23;3.58;;;9.60;99.90;;;;;;6088897;23;20014;-89
2024/02/03 07:08:35;;;;;;;13.02;3.90;;;9.80;99.90;;;;;;6089668;23;20018;-89
2024/02/03 07:11:02;;;;;;;11.35;3.70;;;9.70;99.90;;;;;;6089897;23;20053;-90
2024/02/03 07:13:29;;;;;;;10.27;3.75;;;9.60;99.90;;;;;;6089300;23;20077;-89
2024/02/03 07:15:55;;;;;;;10.73;3.60;;;9.60;99.90;;;;;;6089193;23;20386;-89
2024/02/03 07:18:23;;;;;;;10.02;3.30;;;9.60;99.90;;;;;;6088672;23;20018;-90
2024/02/03 07:20:50;;;;;;;13.05;3.75;;;9.60;99.90;;;;;;6114024;23;20018;-90
2024/02/03 07:23:16;;;;;;;11.02;3.20;;;9.70;99.90;;;;;;6090801;23;20018;-89
2024/02/03 07:25:43;;;;;;;9.32;3.00;;;9.60;99.90;;;;;;6091030;23;20057;-89
2024/02/03 07:28:09;;;;;;;12.77;3.45;;;9.60;99.90;;;;;;6114156;23;20353;-89
2024/02/03 07:30:36;;;;;;;10.82;3.40;;;9.60;99.90;;;;;;6090602;23;20014;-89
2024/02/03 07:33:04;;;;;;;12.20;3.58;;;9.60;99.90;;;;;;6090981;23;20006;-89
2024/02/03 07:35:31;;;;;;;11.68;3.63;;;9.50;99.90;;;;;;6090967;23;20097;-89
2024/02/03 07:37:58;;;;;;;12.18;3.45;;;9.60;99.90;;;;;;6090584;23;20042;-89
2024/02/03 07:40:24;;;;;;;12.07;3.30;;;9.90;99.90;;;;;;6090549;23;20097;-90
2024/02/03 07:42:51;;;;;;;10.50;3.38;;;9.60;99.90;;;;;;6089946;23;20116;-89
2024/02/03 07:45:18;;;;;;;8.25;3.10;;;9.60;99.90;;;;;;6090528;23;20450;-89
2024/02/03 07:47:45;;;;;;;10.32;3.22;;;9.60;99.90;;;;;;6114637;23;20398;-90
2024/02/03 07:50:11;;;;;;;10.40;2.95;;;9.60;99.90;;;;;;6115066;23;20049;-90
2024/02/03 07:52:38;;;;;;;12.32;3.13;;;9.60;99.90;;;;;;6114987;23;20021;-90
2024/02/03 07:55:05;;;;;;;10.52;2.80;;;9.70;99.90;;;;;;6090898;23;20480;-90
2024/02/03 07:57:32;;;;;;;11.30;2.92;;;9.70;99.90;;;;;;6090688;23;20028;-90
2024/02/03 07:59:58;;;;;;;8.98;3.35;;;10.00;99.90;;;;;;6091265;23;20099;-90
2024/02/03 08:02:25;;;;;;;11.00;3.05;;;9.70;99.90;;;;;;6090134;23;20097;-90
2024/02/03 08:04:53;;;;;;;8.30;3.10;;;10.30;99.90;;;;;;6114564;23;20046;-90
2024/02/03 08:07:19;;;;;;;10.80;3.33;;;9.80;99.90;;;;;;6090725;23;20014;-90
2024/02/03 08:09:46;;;;;;;17.23;3.63;;;9.80;99.90;;;;;;6090636;23;20081;-91
2024/02/03 08:12:13;;;;;;;9.13;3.00;;;9.80;99.90;;;;;;6090734;23;20158;-90
2024/02/03 08:14:39;;;;;;;14.00;3.72;;;9.80;99.90;;;;;;6090129;23;20014;-90
2024/02/03 08:17:06;;;;;;;6.85;3.08;;;9.80;99.90;;;;;;6090109;23;20780;-89
2024/02/03 08:19:33;;;;;;;17.05;3.28;;;10.10;99.90;;;;;;6090634;23;20010;-90
2024/02/03 08:21:59;;;;;;;13.15;3.50;;;10.00;99.90;;;;;;6091067;23;20015;-90
2024/02/03 08:24:26;;;;;;;10.32;3.40;;;9.90;99.90;;;;;;6090589;23;20112;-90
2024/02/03 08:26:52;;;;;;;11.15;3.38;;;10.00;99.90;;;;;;6115244;23;20106;-91
2024/02/03 08:29:19;;;;;;;8.25;4.30;;;9.90;99.90;;;;;;6090529;23;20053;-90
2024/02/03 08:31:46;;;;;;;7.15;2.88;;;10.00;99.90;;;;;;6090474;23;20029;-90
2024/02/03 08:34:12;;;;;;;10.85;3.13;;;9.90;99.90;;;;;;6090431;23;20010;-90
2024/02/03 08:36:39;;;;;;;9.32;3.33;;;9.90;99.90;;;;;;6089674;23;20014;-90
2024/02/03 08:39:06;;;;;;;14.07;3.75;;;10.00;99.90;;;;;;6089851;23;20022;-90
2024/02/03 08:41:32;;;;;;;9.25;2.92;;;10.20;99.90;;;;;;6089888;23;20022;-90
2024/02/03 08:43:59;;;;;;;12.38;3.28;;;10.00;99.90;;;;;;6090157;23;20017;-90
2024/02/03 08:46:25;;;;;;;8.45;3.35;;;10.10;99.90;;;;;;6089624;23;20864;-90
2024/02/03 08:48:52;;;;;;;12.02;3.47;;;10.00;99.90;;;;;;6090491;23;20089;-91
2024/02/03 08:51:19;;;;;;;7.72;3.03;;;9.90;99.90;;;;;;6090113;23;20022;-90
2024/02/03 08:53:45;;;;;;;12.40;2.80;;;10.00;99.90;;;;;;6090239;23;20326;-90
2024/02/03 08:56:12;;;;;;;9.02;2.60;;;10.20;99.90;;;;;;6090449;23;20014;-90
2024/02/03 08:58:38;;;;;;;11.65;3.08;;;10.10;99.90;;;;;;6114344;23;20154;-90
2024/02/03 09:01:05;;;;;;;12.05;3.05;;;10.10;99.90;;;;;;6090301;23;20006;-90
2024/02/03 09:03:32;;;;;;;11.00;2.65;;;10.10;99.90;;;;;;6089887;23;20014;-90
2024/02/03 09:05:58;;;;;;;11.88;2.60;;;10.10;99.90;;;;;;6090153;23;20021;-90
2024/02/03 09:08:25;;;;;;;14.98;2.95;;;10.10;99.90;;;;;;6113931;23;20462;-90
2024/02/03 09:10:52;;;;;;;10.90;2.33;;;10.10;99.90;;;;;;6090126;23;20434;-90
2024/02/03 09:13:19;;;;;;;8.02;2.70;;;10.10;99.90;;;;;;6090237;23;20056;-90
2024/02/03 09:15:45;;;;;;;12.18;3.17;;;10.60;99.90;;;;;;6090096;23;20015;-92
2024/02/03 09:18:12;;;;;;;10.15;2.63;;;10.20;99.90;;;;;;6090185;23;20045;-91
2024/02/03 09:20:38;;;;;;;8.70;3.03;;;10.20;99.90;;;;;;6090023;23;20014;-92
2024/02/03 09:23:05;;;;;;;10.52;2.58;;;10.10;99.90;;;;;;6090417;23;20016;-92
2024/02/03 09:25:32;;;;;;;8.75;2.92;;;10.20;99.90;;;;;;6090188;23;20423;-91
2024/02/03 09:27:58;;;;;;;9.65;3.00;;;10.20;99.90;;;;;;6089958;23;20089;-91
2024/02/03 09:30:25;;;;;;;10.38;2.80;;;10.50;99.90;;;;;;6089996;23;20462;-93
2024/02/03 09:32:51;;;;;;;5.88;2.38;;;10.20;99.90;;;;;;6089613;23;20014;-93
2024/02/03 09:35:18;;;;;;;8.68;2.20;;;10.60;99.90;;;;;;6090123;23;20014;-92
2024/02/03 09:37:45;;;;;;;9.50;2.40;;;10.50;99.90;;;;;;6089499;23;20353;-91
2024/02/03 09:40:20;;;;;;;11.75;2.58;;;10.20;99.90;;;;;;6089980;23;20018;-92
2024/02/03 09:42:48;;;;;;;10.55;2.58;;;10.20;99.90;;;;;;6114000;23;20442;-91
2024/02/03 09:45:15;;;;;;;8.55;2.35;;;10.20;99.90;;;;;;6090141;23;20074;-92
2024/02/03 09:47:42;;;;;;;13.73;2.60;;;10.30;99.90;;;;;;6090195;23;20014;-85
2024/02/03 09:50:09;;;;;;;7.57;2.30;;;10.20;99.90;;;;;;6090131;23;20057;-93
2024/02/03 09:52:37;;;;;;;15.10;2.85;;;10.30;99.90;;;;;;6114080;23;20072;-93
2024/02/03 09:55:05;;;;;;;8.75;2.53;;;10.60;99.90;;;;;;6090022;23;20021;-92
2024/02/03 09:57:32;;;;;;;13.40;2.80;;;10.30;99.90;;;;;;6090188;23;20018;-93
2024/02/03 09:59:59;;;;;;;11.88;3.22;;;10.30;99.90;;;;;;6089942;23;20011;-92
2024/02/03 10:02:27;;;;;;;11.65;3.38;;;10.60;99.90;;;;;;6090355;23;20072;-92
2024/02/03 10:04:55;;;;;;;14.13;3.30;;;10.30;99.90;;;;;;6089952;23;20014;-92
2024/02/03 10:07:22;;;;;;;8.60;2.63;;;10.30;99.90;;;;;;6089845;23;20637;-93
2024/02/03 10:09:48;;;;;;;12.82;3.35;;;10.30;99.90;;;;;;6089723;23;20018;-92
2024/02/03 10:12:20;;;;;;;10.52;2.95;;;10.40;99.90;;;;;;6089997;23;20453;-92
2024/02/03 10:14:46;;;;;;;8.85;2.78;;;10.80;99.90;;;;;;6089901;23;20022;-92
2024/02/03 10:17:20;;;;;;;9.85;2.78;;;10.40;99.90;;;;;;6090059;23;20350;-93
2024/02/03 10:19:47;;;;;;;8.75;2.63;;;10.30;99.90;;;;;;6089663;23;20014;-93
2024/02/03 10:22:13;;;;;;;11.98;3.20;;;10.40;99.90;;;;;;6090053;23;20018;-92
2024/02/03 10:24:40;;;;;;;7.50;2.53;;;10.40;99.90;;;;;;6089796;23;20763;-93
2024/02/03 10:27:07;;;;;;;14.75;3.03;;;10.60;99.90;;;;;;6090122;23;20100;-93
2024/02/03 10:29:34;;;;;;;16.70;3.70;;;10.40;99.90;;;;;;6089901;23;20457;-92
2024/02/03 10:32:01;;;;;;;11.25;3.03;;;10.50;99.90;;;;;;6113999;23;20026;-93
2024/02/03 10:34:30;;;;;;;12.07;3.10;;;10.50;99.90;;;;;;6089696;23;20085;-93
2024/02/03 10:36:57;;;;;;;10.70;2.60;;;10.50;99.90;;;;;;6089274;23;20357;-93
2024/02/03 10:39:23;;;;;;;9.70;3.60;;;10.50;99.90;;;;;;6089601;23;20022;-93
2024/02/03 10:41:52;;;;;;;12.10;3.08;;;10.70;99.90;;;;;;6089863;23;20461;-93
2024/02/03 10:44:23;;;;;;;10.20;3.20;;;10.60;99.90;;;;;;6113815;23;20098;-94
2024/02/03 10:46:52;;;;;;;13.57;2.97;;;11.30;99.90;;;;;;6089996;23;20112;-95
2024/02/03 10:49:32;;;;;;;12.45;3.50;;;10.70;99.90;;;;;;6089546;23;20019;-95
2024/02/03 10:52:06;;;;;;;8.93;2.88;;;10.50;99.90;;;;;;6089595;23;20018;-94
2024/02/03 10:54:34;;;;;;;12.32;2.70;;;10.60;99.90;;;;;;6090917;23;20076;-93
2024/02/03 10:57:03;;;;;;;10.25;3.10;;;10.60;99.90;;;;;;6091481;23;20021;-94
2024/02/03 10:59:30;;;;;;;11.05;3.15;;;11.40;99.90;;;;;;6091627;23;20014;-93
2024/02/03 11:01:56;;;;;;;7.55;2.60;;;11.20;99.90;;;;;;6091806;23;20354;-93
2024/02/03 11:04:23;;;;;;;9.98;3.58;;;10.80;99.90;;;;;;6091458;23;20016;-92
2024/02/03 11:06:51;;;;;;;10.88;3.17;;;10.90;99.90;;;;;;6091546;23;20057;-92
2024/02/03 11:09:20;;;;;;;9.90;3.15;;;10.80;99.90;;;;;;6090978;23;20018;-92
2024/02/03 11:11:49;;;;;;;10.35;2.85;;;10.90;99.90;;;;;;6090650;23;20022;-93
2024/02/03 11:14:19;;;;;;;12.98;2.97;;;11.40;99.90;;;;;;6091112;23;20018;-92
2024/02/03 11:16:54;;;;;;;8.48;2.50;;;10.90;99.90;;;;;;6091695;23;20046;-92
2024/02/03 11:19:29;;;;;;;17.13;3.17;;;11.10;99.90;;;;;;6091363;23;20114;-92
2024/02/03 11:21:57;;;;;;;10.88;2.80;;;10.90;99.90;;;;;;6091261;23;20029;-92
2024/02/03 11:24:24;;;;;;;14.38;3.25;;;10.90;99.90;;;;;;6091024;23;20015;-92
2024/02/03 11:26:58;;;;;;;10.40;2.90;;;11.20;99.90;;;;;;6090992;23;20014;-93
2024/02/03 11:29:26;;;;;;;9.27;3.13;;;10.90;99.90;;;;;;6090958;23;20029;-92
2024/02/03 11:32:14;;;;;;;10.43;2.80;;;10.90;99.90;;;;;;6090950;23;20018;-91
2024/02/03 11:34:41;;;;;;;12.77;3.42;;;10.90;99.90;;;;;;6091447;23;20080;-92
2024/02/03 11:37:14;;;;;;;12.32;2.75;;;10.90;99.90;;;;;;6090697;23;20023;-92
2024/02/03 11:39:40;;;;;;;10.68;2.50;;;10.90;99.90;;;;;;6091308;23;20046;-93
2024/02/03 11:42:08;;;;;;;12.43;3.17;;;11.10;99.90;;;;;;6091240;23;20015;-94
2024/02/03 11:44:53;;;;;;;10.25;2.63;;;11.10;99.90;;;;;;6090803;23;20052;-92
2024/02/03 11:47:21;;;;;;;8.37;2.73;;;11.10;99.90;;;;;;6090710;23;20014;-93
2024/02/03 11:49:50;;;;;;;10.80;2.75;;;11.20;99.90;;;;;;6090425;23;20246;-93
2024/02/03 11:52:18;;;;;;;11.82;2.33;;;11.30;99.90;;;;;;6090897;23;20015;-92
2024/02/03 11:54:44;;;;;;;11.65;2.42;;;11.30;99.90;;;;;;6090961;23;20025;-93
2024/02/03 11:57:11;;;;;;;10.60;2.63;;;11.90;99.90;;;;;;6090957;23;20011;-92
2024/02/03 11:59:38;;;;;;;12.02;2.80;;;11.30;99.90;;;;;;6115031;23;20069;-92
2024/02/03 12:02:04;;;;;;;7.43;2.50;;;11.40;99.90;;;;;;6091323;23;20014;-92
2024/02/03 12:04:32;;;;;;;12.95;3.08;;;11.30;99.90;;;;;;6090733;23;20010;-91
2024/02/03 12:06:59;;;;;;;10.32;2.53;;;11.30;99.90;;;;;;6090275;23;20018;-93
2024/02/03 12:09:26;;;;;;;11.13;2.60;;;11.30;99.90;;;;;;6090460;23;20477;-92
2024/02/03 12:11:53;;;;;;;10.35;2.92;;;11.30;99.90;;;;;;6090320;23;20054;-93
2024/02/03 12:14:21;;;;;;;8.05;2.30;;;11.30;99.90;;;;;;6090805;23;20015;-91
2024/02/03 12:16:49;;;;;;;10.85;3.03;;;11.30;99.90;;;;;;6113379;23;20077;-92
2024/02/03 12:19:16;;;;;;;12.45;2.60;;;11.70;99.90;;;;;;6090569;23;20030;-91
2024/02/03 12:21:46;;;;;;;12.18;2.60;;;11.80;99.90;;;;;;6090607;23;20010;-90
2024/02/03 12:24:13;;;;;;;10.70;2.40;;;11.40;99.90;;;;;;6091298;23;20441;-89
2024/02/03 12:26:41;;;;;;;13.23;3.00;;;11.40;99.90;;;;;;6090925;23;20010;-90
2024/02/03 12:29:08;;;;;;;10.85;2.50;;;11.50;99.90;;;;;;6090559;23;20014;-91
2024/02/03 12:31:34;;;;;;;11.85;2.50;;;11.40;99.90;;;;;;6090621;23;20101;-91
2024/02/03 12:34:01;;;;;;;12.82;2.88;;;11.50;99.90;;;;;;6090424;23;20026;-91
2024/02/03 12:36:28;;;;;;;9.93;2.70;;;11.50;99.90;;;;;;6090475;23;20018;-91
2024/02/03 12:38:57;;;;;;;9.02;2.38;;;11.50;99.90;;;;;;6090687;23;20022;-91
2024/02/03 12:41:25;;;;;;;7.90;2.70;;;11.40;99.90;;;;;;6090708;23;20545;-90
2024/02/03 12:43:52;;;;;;;8.63;3.15;;;12.10;99.90;;;;;;6090628;23;20120;-91
2024/02/03 12:46:19;;;;;;;8.80;2.25;;;11.40;99.90;;;;;;6090306;23;20025;-90